Time;durP1;ratioP1;P1;durP2;ratioP2;P2;SDS_P1;SDS_P2;PMS_P1;PMS_P2;Temp;Humidity;BMP_temperature;BMP_pressure;BME280_temperature;BME280_humidity;BME280_pressure;Samples;Min_cycle;Max_cycle;Signal;HPM_P1;HPM_P2
2023/10/11 00:01:48;;;;;;;;;;;;;;;;;;5035503;28;20217;-28
2023/10/11 00:04:26;;;;;;;;;;;;;;;;;;5038548;28;20054;-25
2023/10/11 00:06:54;;;;;;;;;;;;;;;;;;4998534;28;19925;-27
2023/10/11 00:09:34;;;;;;;;;;;;;;;;;;4998544;28;19985;-25
2023/10/11 00:12:00;;;;;;;;;;;;;;;;;;4998740;28;19909;-30
2023/10/11 00:14:28;;;;;;;;;;;;;;;;;;4998384;28;19911;-22
2023/10/11 00:16:57;;;;;;;;;;;;;;;;;;4998411;28;20334;-28
2023/10/11 00:19:27;;;;;;;;;;;;;;;;;;4998330;28;19909;-28
2023/10/11 00:21:53;;;;;;;;;;;;;;;;;;4998783;28;19910;-25
2023/10/11 00:24:23;;;;;;;;;;;;;;;;;;4998516;28;20008;-25
2023/10/11 00:26:49;;;;;;;;;;;;;;;;;;4998139;28;19914;-23
2023/10/11 00:29:15;;;;;;;;;;;;;;;;;;4998794;28;20329;-25
2023/10/11 00:31:41;;;;;;;;;;;;;;;;;;4998151;28;20012;-25
2023/10/11 00:34:10;;;;;;;;;;;;;;;;;;4997981;28;19917;-22
2023/10/11 00:36:36;;;;;;;;;;;;;;;;;;4998306;28;20198;-25
2023/10/11 00:39:05;;;;;;;;;;;;;;;;;;4997999;28;19917;-26
2023/10/11 00:41:31;;;;;;;;;;;;;;;;;;4998201;28;19960;-26
2023/10/11 00:43:57;;;;;;;;;;;;;;;;;;4997851;28;20341;-25
2023/10/11 00:46:23;;;;;;;;;;;;;;;;;;4997781;28;20307;-30
2023/10/11 00:48:55;;;;;;;;;;;;;;;;;;4997797;28;19910;-29
2023/10/11 00:51:23;;;;;;;;;;;;;;;;;;4998081;28;19949;-26
2023/10/11 00:53:49;;;;;;;;;;;;;;;;;;4997686;28;19910;-24
2023/10/11 00:56:16;;;;;;;;;;;;;;;;;;4997943;28;19921;-28
2023/10/11 00:58:43;;;;;;;;;;;;;;;;;;4997734;28;19921;-27
2023/10/11 01:01:10;;;;;;;;;;;;;;;;;;4997574;28;20009;-26
2023/10/11 01:03:36;;;;;;;;;;;;;;;;;;4997590;28;20349;-22
2023/10/11 01:06:03;;;;;;;;;;;;;;;;;;5023587;28;19921;-23
2023/10/11 01:08:38;;;;;;;;;;;;;;;;;;5037136;28;20256;-23
2023/10/11 01:11:04;;;;;;;;;;;;;;;;;;5036803;28;19909;-23
2023/10/11 01:13:30;;;;;;;;;;;;;;;;;;5036835;28;19909;-22
2023/10/11 01:15:56;;;;;;;;;;;;;;;;;;5019154;28;19909;-28
2023/10/11 01:18:22;;;;;;;;;;;;;;;;;;5036556;28;19971;-23
2023/10/11 01:20:48;;;;;;;;;;;;;;;;;;5036569;28;19916;-23
2023/10/11 01:23:15;;;;;;;;;;;;;;;;;;5036573;28;20297;-23
2023/10/11 01:25:41;;;;;;;;;;;;;;;;;;5036382;28;19913;-25
2023/10/11 01:28:07;;;;;;;;;;;;;;;;;;5036662;28;19913;-25
2023/10/11 01:30:33;;;;;;;;;;;;;;;;;;5036460;28;20438;-22
2023/10/11 01:32:59;;;;;;;;;;;;;;;;;;5036537;28;19909;-24
2023/10/11 01:35:35;;;;;;;;;;;;;;;;;;5036352;28;19913;-29
2023/10/11 01:38:04;;;;;;;;;;;;;;;;;;5036233;28;19917;-30
2023/10/11 01:40:32;;;;;;;;;;;;;;;;;;5036185;28;19909;-26
2023/10/11 01:42:59;;;;;;;;;;;;;;;;;;5036142;28;19955;-28
2023/10/11 01:45:25;;;;;;;;;;;;;;;;;;5035979;28;19924;-32
2023/10/11 01:47:51;;;;;;;;;;;;;;;;;;5036115;28;19917;-22
2023/10/11 01:50:17;;;;;;;;;;;;;;;;;;5036045;28;19916;-25
2023/10/11 01:52:43;;;;;;;;;;;;;;;;;;5035943;28;19909;-26
2023/10/11 01:55:15;;;;;;;;;;;;;;;;;;5035932;28;20388;-25
2023/10/11 01:57:50;;;;;;;;;;;;;;;;;;5036137;28;19940;-26
2023/10/11 02:00:16;;;;;;;;;;;;;;;;;;5035758;28;19909;-23
2023/10/11 02:02:47;;;;;;;;;;;;;;;;;;5035922;28;20229;-24
2023/10/11 02:05:13;;;;;;;;;;;;;;;;;;5035628;28;19921;-25
2023/10/11 02:07:39;;;;;;;;;;;;;;;;;;5035962;28;19958;-25
2023/10/11 02:10:05;;;;;;;;;;;;;;;;;;5035562;28;19916;-25
2023/10/11 02:12:31;;;;;;;;;;;;;;;;;;5035664;28;19909;-23
2023/10/11 02:14:57;;;;;;;;;;;;;;;;;;5035810;28;19913;-23
2023/10/11 02:17:23;;;;;;;;;;;;;;;;;;5035525;28;19920;-24
2023/10/11 02:19:49;;;;;;;;;;;;;;;;;;5035768;28;20299;-26
2023/10/11 02:22:18;;;;;;;;;;;;;;;;;;5035391;28;19913;-26
2023/10/11 02:24:44;;;;;;;;;;;;;;;;;;5035081;28;19995;-31
2023/10/11 02:27:17;;;;;;;;;;;;;;;;;;5035213;28;20032;-28
2023/10/11 02:29:44;;;;;;;;;;;;;;;;;;5035579;28;20002;-23
2023/10/11 02:32:11;;;;;;;;;;;;;;;;;;5035066;28;19909;-22
2023/10/11 02:34:37;;;;;;;;;;;;;;;;;;5035106;28;19955;-24
2023/10/11 02:37:05;;;;;;;;;;;;;;;;;;5035153;28;19917;-22
2023/10/11 02:39:31;;;;;;;;;;;;;;;;;;5035161;28;19909;-23
2023/10/11 02:41:57;;;;;;;;;;;;;;;;;;5035046;28;20355;-22
2023/10/11 02:44:23;;;;;;;;;;;;;;;;;;5035006;28;19943;-23
2023/10/11 02:46:49;;;;;;;;;;;;;;;;;;5034974;28;19917;-26
2023/10/11 02:49:18;;;;;;;;;;;;;;;;;;5035238;28;19992;-23
2023/10/11 02:51:52;;;;;;;;;;;;;;;;;;5035214;28;20272;-28
2023/10/11 02:54:18;;;;;;;;;;;;;;;;;;5017477;28;19909;-25
2023/10/11 02:56:46;;;;;;;;;;;;;;;;;;5034909;28;19916;-27
2023/10/11 02:59:12;;;;;;;;;;;;;;;;;;5034861;28;19909;-27
2023/10/11 03:01:38;;;;;;;;;;;;;;;;;;5035033;28;19909;-23
2023/10/11 03:04:07;;;;;;;;;;;;;;;;;;5034688;28;19920;-27
2023/10/11 03:06:35;;;;;;;;;;;;;;;;;;5034457;28;20023;-24
2023/10/11 03:09:01;;;;;;;;;;;;;;;;;;5034924;28;20004;-21
2023/10/11 03:11:29;;;;;;;;;;;;;;;;;;5034663;28;19947;-25
2023/10/11 03:13:56;;;;;;;;;;;;;;;;;;5034571;28;19920;-23
2023/10/11 03:16:23;;;;;;;;;;;;;;;;;;5034563;28;20255;-23
2023/10/11 03:18:52;;;;;;;;;;;;;;;;;;5034508;28;20027;-24
2023/10/11 03:21:19;;;;;;;;;;;;;;;;;;5034527;28;19921;-22
2023/10/11 03:23:45;;;;;;;;;;;;;;;;;;5034746;28;19975;-28
2023/10/11 03:26:17;;;;;;;;;;;;;;;;;;5034499;28;20243;-24
2023/10/11 03:28:43;;;;;;;;;;;;;;;;;;5034868;28;19960;-26
2023/10/11 03:31:12;;;;;;;;;;;;;;;;;;5034479;28;19917;-26
2023/10/11 03:33:40;;;;;;;;;;;;;;;;;;5034349;28;19913;-26
2023/10/11 03:36:17;;;;;;;;;;;;;;;;;;5034408;28;19992;-28
2023/10/11 03:38:45;;;;;;;;;;;;;;;;;;5038482;28;20348;-24
2023/10/11 03:41:17;;;;;;;;;;;;;;;;;;5038490;28;19915;-23
2023/10/11 03:43:44;;;;;;;;;;;;;;;;;;5038298;28;19964;-21
2023/10/11 03:46:10;;;;;;;;;;;;;;;;;;5038475;28;20233;-22
2023/10/11 03:48:44;;;;;;;;;;;;;;;;;;5038202;28;19909;-29
2023/10/11 03:51:10;;;;;;;;;;;;;;;;;;5038142;28;20248;-23
2023/10/11 03:53:39;;;;;;;;;;;;;;;;;;5037905;28;20297;-26
2023/10/11 03:56:05;;;;;;;;;;;;;;;;;;5037972;28;19913;-26
2023/10/11 04:01:05;;;;;;;;;;;;;;;;;;5037948;28;20300;-27
2023/10/11 04:03:33;;;;;;;;;;;;;;;;;;5037882;28;19909;-24
2023/10/11 04:05:59;;;;;;;;;;;;;;;;;;5020399;28;20447;-29
2023/10/11 04:08:26;;;;;;;;;;;;;;;;;;5037711;28;19916;-20
2023/10/11 04:10:54;;;;;;;;;;;;;;;;;;5037986;28;20260;-24
2023/10/11 04:13:26;;;;;;;;;;;;;;;;;;5037714;28;20264;-22
2023/10/11 04:15:54;;;;;;;;;;;;;;;;;;5037730;28;20283;-23
2023/10/11 04:23:36;;;;;;;;;;;;;;;;;;5037389;28;19909;-27
2023/10/11 04:26:08;;;;;;;;;;;;;;;;;;5037524;28;20015;-26
2023/10/11 04:28:34;;;;;;;;;;;;;;;;;;5037565;28;20240;-24
2023/10/11 04:33:50;;;;;;;;;;;;;;;;;;5037388;28;20016;-24
2023/10/11 04:36:20;;;;;;;;;;;;;;;;;;5037568;28;19936;-23
2023/10/11 04:38:49;;;;;;;;;;;;;;;;;;5037064;28;20348;-23
2023/10/11 04:41:17;;;;;;;;;;;;;;;;;;5037213;28;19952;-25
2023/10/11 04:43:50;;;;;;;;;;;;;;;;;;5036595;28;19920;-29
2023/10/11 04:46:16;;;;;;;;;;;;;;;;;;5036834;28;19932;-23
2023/10/11 04:48:44;;;;;;;;;;;;;;;;;;5036321;28;20339;-25
2023/10/11 04:51:21;;;;;;;;;;;;;;;;;;5036564;28;19909;-28
2023/10/11 05:01:58;;;;;;;;;;;;;;;;;;4956787;29;19972;-22
2023/10/11 05:04:28;;;;;;;;;;;;;;;;;;4982114;28;19913;-25
2023/10/11 05:06:54;;;;;;;;;;;;;;;;;;5036353;28;20418;-29
2023/10/11 05:11:58;;;;;;;;;;;;;;;;;;5036444;28;19909;-28
2023/10/11 05:14:30;;;;;;;;;;;;;;;;;;5037157;28;19916;-22
2023/10/11 05:16:59;;;;;;;;;;;;;;;;;;5036607;28;19967;-24
2023/10/11 05:19:25;;;;;;;;;;;;;;;;;;5036726;28;20407;-25
2023/10/11 05:21:53;;;;;;;;;;;;;;;;;;5018814;28;19959;-23
2023/10/11 05:30:06;;;;;;;;;;;;;;;;;;5036367;28;19919;-22
2023/10/11 05:32:58;;;;;;;;;;;;;;;;;;5036308;28;19996;-27
2023/10/11 05:51:33;;;;;;;;;;;;;;;;;;5035625;28;20437;-23
2023/10/11 05:53:59;;;;;;;;;;;;;;;;;;5035437;28;19909;-26
2023/10/11 05:56:25;;;;;;;;;;;;;;;;;;5035423;28;20008;-25
2023/10/11 05:58:52;;;;;;;;;;;;;;;;;;5017328;28;19909;-26
2023/10/11 06:01:19;;;;;;;;;;;;;;;;;;5035005;28;19909;-25
2023/10/11 06:03:48;;;;;;;;;;;;;;;;;;5035086;28;20031;-22
2023/10/11 06:09:26;;;;;;;;;;;;;;;;;;4955829;28;19918;-26
2023/10/11 06:11:52;;;;;;;;;;;;;;;;;;4955185;29;19911;-27
2023/10/11 06:14:18;;;;;;;;;;;;;;;;;;4978819;28;20003;-26
2023/10/11 06:16:49;;;;;;;;;;;;;;;;;;5034789;28;19909;-24
2023/10/11 06:19:18;;;;;;;;;;;;;;;;;;5034996;28;19974;-26
2023/10/11 06:21:57;;;;;;;;;;;;;;;;;;5034708;28;19931;-23
2023/10/11 06:24:23;;;;;;;;;;;;;;;;;;5034863;28;19939;-28
2023/10/11 06:29:22;;;;;;;;;;;;;;;;;;5034538;28;19975;-27
2023/10/11 06:31:48;;;;;;;;;;;;;;;;;;5034716;28;19939;-24
2023/10/11 06:34:32;;;;;;;;;;;;;;;;;;5017127;28;19968;-26
2023/10/11 06:36:58;;;;;;;;;;;;;;;;;;5034659;28;20324;-26
2023/10/11 06:42:14;;;;;;;;;;;;;;;;;;5034656;28;19945;-28
2023/10/11 06:44:40;;;;;;;;;;;;;;;;;;5034733;28;19909;-24
2023/10/11 06:47:06;;;;;;;;;;;;;;;;;;5034791;28;19919;-30
2023/10/11 06:49:44;;;;;;;;;;;;;;;;;;5017485;28;20268;-28
2023/10/11 06:52:17;;;;;;;;;;;;;;;;;;5034787;28;19909;-26
2023/10/11 06:54:45;;;;;;;;;;;;;;;;;;5034719;28;19909;-24
2023/10/11 06:57:12;;;;;;;;;;;;;;;;;;5034444;28;19932;-23
2023/10/11 06:59:41;;;;;;;;;;;;;;;;;;5034554;28;19913;-27
2023/10/11 07:02:17;;;;;;;;;;;;;;;;;;5034144;28;19909;-23
2023/10/11 07:04:50;;;;;;;;;;;;;;;;;;5034317;28;19913;-24
2023/10/11 07:07:16;;;;;;;;;;;;;;;;;;5034088;28;20027;-27
2023/10/11 07:09:56;;;;;;;;;;;;;;;;;;5034563;28;19947;-31
2023/10/11 07:12:39;;;;;;;;;;;;;;;;;;5034359;28;19910;-29
2023/10/11 07:15:07;;;;;;;;;;;;;;;;;;5034186;28;19921;-26
2023/10/11 07:17:33;;;;;;;;;;;;;;;;;;5034003;28;19957;-26
2023/10/11 07:20:00;;;;;;;;;;;;;;;;;;5016656;28;19909;-20
2023/10/11 07:22:26;;;;;;;;;;;;;;;;;;5034866;28;19932;-24
2023/10/11 07:24:55;;;;;;;;;;;;;;;;;;5034267;28;20212;-22
2023/10/11 07:27:37;;;;;;;;;;;;;;;;;;5034420;28;19913;-24
2023/10/11 07:30:06;;;;;;;;;;;;;;;;;;5034316;28;19909;-25
2023/10/11 07:32:33;;;;;;;;;;;;;;;;;;5034114;28;19909;-23
2023/10/11 07:35:05;;;;;;;;;;;;;;;;;;5034525;28;19909;-29
2023/10/11 07:37:31;;;;;;;;;;;;;;;;;;5034377;28;19917;-20
2023/10/11 07:40:00;;;;;;;;;;;;;;;;;;5034113;28;19917;-22
2023/10/11 07:42:28;;;;;;;;;;;;;;;;;;5033925;28;19909;-31
2023/10/11 07:44:54;;;;;;;;;;;;;;;;;;5033858;28;19971;-23
2023/10/11 07:47:25;;;;;;;;;;;;;;;;;;5034096;28;20329;-26
2023/10/11 07:49:54;;;;;;;;;;;;;;;;;;5034386;28;20264;-26
2023/10/11 07:52:22;;;;;;;;;;;;;;;;;;5033860;28;20313;-28
2023/10/11 07:54:51;;;;;;;;;;;;;;;;;;5016711;28;20332;-25
2023/10/11 07:57:19;;;;;;;;;;;;;;;;;;5034025;28;19920;-26
2023/10/11 07:59:47;;;;;;;;;;;;;;;;;;5033979;28;20347;-24
2023/10/11 08:02:41;;;;;;;;;;;;;;;;;;5033772;28;19909;-27
2023/10/11 08:05:12;;;;;;;;;;;;;;;;;;5033729;28;20012;-26
2023/10/11 08:07:39;;;;;;;;;;;;;;;;;;5033937;28;20216;-24
2023/10/11 08:10:29;;;;;;;;;;;;;;;;;;5033913;28;19920;-24
2023/10/11 08:12:51;;;;;;;;;;;;;;;;;;5033768;28;20376;-24
2023/10/11 08:15:22;;;;;;;;;;;;;;;;;;5034147;28;19943;-30
2023/10/11 08:17:48;;;;;;;;;;;;;;;;;;5033916;28;19909;-22
2023/10/11 08:20:15;;;;;;;;;;;;;;;;;;5034161;28;19916;-21
2023/10/11 08:22:41;;;;;;;;;;;;;;;;;;5034963;28;19980;-26
2023/10/11 08:25:12;;;;;;;;;;;;;;;;;;5037583;28;20406;-26
2023/10/11 08:27:38;;;;;;;;;;;;;;;;;;5020653;28;20335;-30
2023/10/11 08:30:17;;;;;;;;;;;;;;;;;;5019932;28;19909;-25
2023/10/11 08:32:45;;;;;;;;;;;;;;;;;;5036996;28;20241;-24
2023/10/11 08:35:16;;;;;;;;;;;;;;;;;;5036917;28;19909;-30
2023/10/11 08:37:42;;;;;;;;;;;;;;;;;;5019351;28;20320;-22
2023/10/11 08:40:29;;;;;;;;;;;;;;;;;;5037172;28;19916;-26
2023/10/11 08:42:59;;;;;;;;;;;;;;;;;;5036312;28;19913;-30
2023/10/11 08:45:25;;;;;;;;;;;;;;;;;;5036431;28;19913;-25
2023/10/11 08:47:51;;;;;;;;;;;;;;;;;;5036545;28;20243;-24
2023/10/11 08:50:17;;;;;;;;;;;;;;;;;;5036256;28;19909;-23
2023/10/11 08:52:43;;;;;;;;;;;;;;;;;;5036190;28;19919;-25
2023/10/11 08:55:12;;;;;;;;;;;;;;;;;;5036289;28;19952;-26
2023/10/11 08:57:38;;;;;;;;;;;;;;;;;;5036107;28;19909;-24
2023/10/11 09:00:17;;;;;;;;;;;;;;;;;;5036040;28;20009;-27
2023/10/11 09:02:48;;;;;;;;;;;;;;;;;;5018602;28;19909;-28
2023/10/11 09:05:32;;;;;;;;;;;;;;;;;;5035907;28;19917;-24
2023/10/11 09:08:02;;;;;;;;;;;;;;;;;;5036173;28;19928;-24
2023/10/11 09:10:28;;;;;;;;;;;;;;;;;;5035965;28;20225;-26
2023/10/11 09:12:56;;;;;;;;;;;;;;;;;;5035737;28;19909;-25
2023/10/11 09:15:22;;;;;;;;;;;;;;;;;;5035700;28;20014;-26
2023/10/11 09:17:50;;;;;;;;;;;;;;;;;;5035719;28;19916;-28
2023/10/11 09:20:23;;;;;;;;;;;;;;;;;;5018004;28;20008;-27
2023/10/11 09:22:52;;;;;;;;;;;;;;;;;;5035758;28;19909;-25
2023/10/11 09:25:22;;;;;;;;;;;;;;;;;;5036413;28;20255;-26
2023/10/11 09:27:51;;;;;;;;;;;;;;;;;;5036024;28;19944;-28
2023/10/11 09:30:20;;;;;;;;;;;;;;;;;;5036433;28;19913;-28
2023/10/11 09:32:49;;;;;;;;;;;;;;;;;;5036125;28;20008;-25
2023/10/11 09:35:16;;;;;;;;;;;;;;;;;;5034847;28;20402;-24
2023/10/11 09:37:46;;;;;;;;;;;;;;;;;;5036075;28;20325;-26
2023/10/11 09:40:16;;;;;;;;;;;;;;;;;;5036215;28;19909;-28
2023/10/11 09:42:43;;;;;;;;;;;;;;;;;;5035666;28;19944;-29
2023/10/11 09:45:09;;;;;;;;;;;;;;;;;;5036315;28;19909;-26
2023/10/11 09:47:41;;;;;;;;;;;;;;;;;;5035666;28;19978;-25
2023/10/11 09:50:13;;;;;;;;;;;;;;;;;;5017948;28;19909;-24
2023/10/11 09:52:45;;;;;;;;;;;;;;;;;;5035631;28;19909;-24
2023/10/11 09:55:17;;;;;;;;;;;;;;;;;;5035702;28;19914;-27
2023/10/11 09:57:50;;;;;;;;;;;;;;;;;;5035739;28;19936;-26
2023/10/11 10:00:17;;;;;;;;;;;;;;;;;;5035403;28;19919;-28
2023/10/11 10:02:44;;;;;;;;;;;;;;;;;;5035419;28;19970;-24
2023/10/11 10:05:10;;;;;;;;;;;;;;;;;;5035227;28;19978;-26
2023/10/11 10:10:06;;;;;;;;;;;;;;;;;;5035509;28;20008;-27
2023/10/11 10:12:32;;;;;;;;;;;;;;;;;;5035614;28;19913;-24
2023/10/11 10:14:57;;;;;;;;;;;;;;;;;;5034910;28;19963;-23
2023/10/11 10:17:24;;;;;;;;;;;;;;;;;;5035143;28;19971;-24
2023/10/11 10:19:50;;;;;;;;;;;;;;;;;;5035118;28;19944;-25
2023/10/11 10:22:16;;;;;;;;;;;;;;;;;;5034870;28;19909;-25
2023/10/11 10:24:43;;;;;;;;;;;;;;;;;;5034116;28;19913;-24
2023/10/11 10:27:12;;;;;;;;;;;;;;;;;;5034611;28;19913;-21
2023/10/11 10:29:40;;;;;;;;;;;;;;;;;;5035177;28;19924;-27
2023/10/11 10:32:06;;;;;;;;;;;;;;;;;;5017978;28;19910;-23
2023/10/11 10:34:32;;;;;;;;;;;;;;;;;;5035097;28;19917;-25
2023/10/11 10:37:01;;;;;;;;;;;;;;;;;;5034983;28;20256;-28
2023/10/11 10:39:46;;;;;;;;;;;;;;;;;;5035192;28;19909;-24
2023/10/11 10:42:15;;;;;;;;;;;;;;;;;;5035019;28;20362;-27
2023/10/11 10:44:41;;;;;;;;;;;;;;;;;;5035084;28;20298;-25
2023/10/11 10:47:08;;;;;;;;;;;;;;;;;;5034224;28;19922;-23
2023/10/11 10:49:34;;;;;;;;;;;;;;;;;;5034971;28;19916;-26
2023/10/11 10:52:02;;;;;;;;;;;;;;;;;;5034623;28;20336;-25
2023/10/11 10:54:32;;;;;;;;;;;;;;;;;;5034821;28;19947;-22
2023/10/11 10:56:58;;;;;;;;;;;;;;;;;;5034637;28;19953;-24
2023/10/11 10:59:26;;;;;;;;;;;;;;;;;;5034376;28;20279;-28
2023/10/11 11:01:55;;;;;;;;;;;;;;;;;;5016269;28;19920;-30
2023/10/11 11:04:22;;;;;;;;;;;;;;;;;;5034031;28;20007;-32
2023/10/11 11:06:48;;;;;;;;;;;;;;;;;;5033457;28;19925;-22
2023/10/11 11:09:15;;;;;;;;;;;;;;;;;;5016028;28;19970;-26
2023/10/11 11:11:41;;;;;;;;;;;;;;;;;;5016311;28;19909;-25
2023/10/11 11:14:08;;;;;;;;;;;;;;;;;;5033608;28;19936;-28
2023/10/11 11:16:39;;;;;;;;;;;;;;;;;;5016093;28;19909;-28
2023/10/11 11:19:08;;;;;;;;;;;;;;;;;;5033686;28;19913;-28
2023/10/11 11:21:44;;;;;;;;;;;;;;;;;;5016363;28;20261;-23
2023/10/11 11:24:14;;;;;;;;;;;;;;;;;;5017191;28;20228;-25
2023/10/11 11:26:40;;;;;;;;;;;;;;;;;;5034065;28;19917;-26
2023/10/11 11:29:16;;;;;;;;;;;;;;;;;;5034004;28;19928;-22
2023/10/11 11:31:43;;;;;;;;;;;;;;;;;;5034339;28;20359;-29
2023/10/11 11:34:09;;;;;;;;;;;;;;;;;;5016837;28;20007;-22
2023/10/11 11:36:37;;;;;;;;;;;;;;;;;;5035012;28;19988;-27
2023/10/11 11:41:48;;;;;;;;;;;;;;;;;;5034475;28;19975;-24
2023/10/11 11:44:22;;;;;;;;;;;;;;;;;;5034161;28;19909;-25
2023/10/11 11:46:48;;;;;;;;;;;;;;;;;;5034333;28;19982;-25
2023/10/11 11:49:15;;;;;;;;;;;;;;;;;;5033961;28;20017;-27
2023/10/11 11:51:41;;;;;;;;;;;;;;;;;;5034524;28;20252;-26
2023/10/11 11:54:10;;;;;;;;;;;;;;;;;;5033889;28;19909;-27
2023/10/11 11:56:36;;;;;;;;;;;;;;;;;;5033726;28;19999;-23
2023/10/11 11:59:02;;;;;;;;;;;;;;;;;;5036902;28;19920;-28
2023/10/11 12:01:28;;;;;;;;;;;;;;;;;;5038069;28;20006;-28
2023/10/11 12:03:54;;;;;;;;;;;;;;;;;;5037807;28;20309;-25
2023/10/11 12:06:23;;;;;;;;;;;;;;;;;;5037363;28;19921;-22
2023/10/11 12:08:49;;;;;;;;;;;;;;;;;;5037758;28;19919;-24
2023/10/11 12:11:15;;;;;;;;;;;;;;;;;;5037599;28;20007;-25
2023/10/11 12:13:41;;;;;;;;;;;;;;;;;;5037654;28;19920;-26
2023/10/11 12:16:09;;;;;;;;;;;;;;;;;;5037773;28;19928;-25
2023/10/11 12:18:35;;;;;;;;;;;;;;;;;;5037592;28;19970;-24
2023/10/11 12:21:10;;;;;;;;;;;;;;;;;;5037606;28;19909;-26
2023/10/11 12:23:36;;;;;;;;;;;;;;;;;;5037335;28;20352;-27
2023/10/11 12:26:04;;;;;;;;;;;;;;;;;;5037567;28;19913;-26
2023/10/11 12:28:30;;;;;;;;;;;;;;;;;;5019986;28;20062;-21
2023/10/11 12:31:00;;;;;;;;;;;;;;;;;;5037697;28;20251;-22
2023/10/11 12:33:27;;;;;;;;;;;;;;;;;;5037249;28;19913;-28
2023/10/11 12:35:53;;;;;;;;;;;;;;;;;;5037317;28;19920;-26
2023/10/11 12:38:19;;;;;;;;;;;;;;;;;;5037083;28;19909;-25
2023/10/11 12:40:45;;;;;;;;;;;;;;;;;;5037049;28;20021;-23
2023/10/11 12:43:11;;;;;;;;;;;;;;;;;;5037151;28;19909;-26
2023/10/11 12:45:42;;;;;;;;;;;;;;;;;;5037116;28;20054;-30
2023/10/11 12:48:09;;;;;;;;;;;;;;;;;;5036824;28;20008;-25
2023/10/11 12:50:38;;;;;;;;;;;;;;;;;;5037103;28;20186;-28
2023/10/11 12:53:10;;;;;;;;;;;;;;;;;;5036933;28;20419;-27
2023/10/11 12:55:36;;;;;;;;;;;;;;;;;;5037100;28;19909;-24
2023/10/11 12:58:02;;;;;;;;;;;;;;;;;;5036671;28;19959;-22
2023/10/11 13:00:37;;;;;;;;;;;;;;;;;;5036432;28;19940;-26
2023/10/11 13:03:18;;;;;;;;;;;;;;;;;;5036790;28;20311;-27
2023/10/11 13:05:45;;;;;;;;;;;;;;;;;;5036433;28;19917;-28
2023/10/11 13:08:14;;;;;;;;;;;;;;;;;;5036257;28;19917;-23
2023/10/11 13:10:40;;;;;;;;;;;;;;;;;;5036728;28;19948;-25
2023/10/11 13:13:09;;;;;;;;;;;;;;;;;;5036539;28;19917;-31
2023/10/11 13:15:38;;;;;;;;;;;;;;;;;;5036281;28;19920;-26
2023/10/11 13:18:09;;;;;;;;;;;;;;;;;;5036708;28;20280;-29
2023/10/11 13:20:35;;;;;;;;;;;;;;;;;;5036560;28;19913;-26
2023/10/11 13:23:01;;;;;;;;;;;;;;;;;;5036154;28;20257;-27
2023/10/11 13:25:27;;;;;;;;;;;;;;;;;;5036121;28;19924;-24
2023/10/11 13:27:54;;;;;;;;;;;;;;;;;;5035958;28;19913;-26
2023/10/11 13:30:22;;;;;;;;;;;;;;;;;;5035877;28;19909;-26
2023/10/11 13:32:49;;;;;;;;;;;;;;;;;;5035912;28;19909;-28
2023/10/11 13:35:15;;;;;;;;;;;;;;;;;;5036335;28;20290;-25
2023/10/11 13:37:46;;;;;;;;;;;;;;;;;;5036105;28;19909;-26
2023/10/11 13:40:12;;;;;;;;;;;;;;;;;;5036274;28;19909;-28
2023/10/11 13:42:38;;;;;;;;;;;;;;;;;;5035759;28;19909;-25
2023/10/11 13:45:04;;;;;;;;;;;;;;;;;;5036472;28;19909;-27
2023/10/11 13:47:36;;;;;;;;;;;;;;;;;;5035818;28;20402;-26
2023/10/11 13:50:08;;;;;;;;;;;;;;;;;;5036110;28;19979;-27
2023/10/11 13:52:36;;;;;;;;;;;;;;;;;;5035615;28;20263;-25
2023/10/11 13:55:08;;;;;;;;;;;;;;;;;;5036139;28;19910;-24
2023/10/11 13:57:35;;;;;;;;;;;;;;;;;;5035859;28;19971;-28
2023/10/11 14:01:00;;;;;;;;;;;;;;;;;;5035730;28;19916;-26
2023/10/11 14:02:47;;;;;;;;;;;;;;;;;;5035337;28;19952;-24
2023/10/11 14:05:14;;;;;;;;;;;;;;;;;;5035400;28;19924;-26
2023/10/11 14:07:52;;;;;;;;;;;;;;;;;;5035737;28;19917;-22
2023/10/11 14:10:26;;;;;;;;;;;;;;;;;;5035395;28;19975;-24
2023/10/11 14:12:56;;;;;;;;;;;;;;;;;;5035242;28;19909;-25
2023/10/11 14:15:22;;;;;;;;;;;;;;;;;;5035605;28;19931;-23
2023/10/11 14:17:52;;;;;;;;;;;;;;;;;;5035366;28;20003;-27
2023/10/11 14:20:30;;;;;;;;;;;;;;;;;;5034723;28;19917;-25
2023/10/11 14:22:57;;;;;;;;;;;;;;;;;;5034955;28;19971;-25
2023/10/11 14:25:29;;;;;;;;;;;;;;;;;;5018017;28;19920;-26
2023/10/11 14:27:55;;;;;;;;;;;;;;;;;;5017850;28;20284;-26
2023/10/11 14:30:21;;;;;;;;;;;;;;;;;;5035581;28;19909;-25
2023/10/11 14:32:47;;;;;;;;;;;;;;;;;;5035139;28;19915;-25
2023/10/11 14:35:13;;;;;;;;;;;;;;;;;;5035026;28;19911;-29
2023/10/11 14:37:42;;;;;;;;;;;;;;;;;;5035019;28;19996;-27
2023/10/11 14:40:14;;;;;;;;;;;;;;;;;;5017351;28;19909;-26
2023/10/11 14:42:40;;;;;;;;;;;;;;;;;;5034699;28;20328;-26
2023/10/11 14:45:06;;;;;;;;;;;;;;;;;;5034849;28;20344;-30
2023/10/11 14:47:32;;;;;;;;;;;;;;;;;;5017170;28;20001;-23
2023/10/11 14:49:58;;;;;;;;;;;;;;;;;;5034578;28;20284;-28
2023/10/11 14:52:27;;;;;;;;;;;;;;;;;;5034419;28;19913;-22
2023/10/11 14:54:54;;;;;;;;;;;;;;;;;;5034645;28;19948;-22
2023/10/11 14:57:21;;;;;;;;;;;;;;;;;;5034858;28;20274;-28
2023/10/11 14:59:49;;;;;;;;;;;;;;;;;;5034555;28;19909;-22
2023/10/11 15:02:15;;;;;;;;;;;;;;;;;;5034803;28;20007;-25
2023/10/11 15:04:41;;;;;;;;;;;;;;;;;;5016947;28;19942;-23
2023/10/11 15:07:07;;;;;;;;;;;;;;;;;;5034549;28;19946;-28
2023/10/11 15:09:34;;;;;;;;;;;;;;;;;;5017010;28;19909;-29
2023/10/11 15:12:00;;;;;;;;;;;;;;;;;;5016771;28;20260;-28
2023/10/11 15:14:26;;;;;;;;;;;;;;;;;;5034041;28;19910;-22
2023/10/11 15:16:52;;;;;;;;;;;;;;;;;;5033832;28;19916;-26
2023/10/11 15:19:19;;;;;;;;;;;;;;;;;;5016168;28;19920;-30
2023/10/11 15:21:45;;;;;;;;;;;;;;;;;;5033641;28;19924;-27
2023/10/11 15:24:13;;;;;;;;;;;;;;;;;;5033543;28;19909;-22
2023/10/11 15:26:39;;;;;;;;;;;;;;;;;;5033951;28;20209;-26
2023/10/11 15:29:06;;;;;;;;;;;;;;;;;;5033617;28;19913;-25
2023/10/11 15:31:32;;;;;;;;;;;;;;;;;;5034485;28;19909;-25
2023/10/11 15:33:59;;;;;;;;;;;;;;;;;;5037716;28;19974;-24
2023/10/11 15:36:28;;;;;;;;;;;;;;;;;;5038319;28;19909;-24
2023/10/11 15:38:54;;;;;;;;;;;;;;;;;;5038728;28;20316;-29
2023/10/11 15:41:20;;;;;;;;;;;;;;;;;;5038192;28;19909;-25
2023/10/11 15:43:46;;;;;;;;;;;;;;;;;;5038000;28;19909;-23
2023/10/11 15:46:12;;;;;;;;;;;;;;;;;;5037960;28;19996;-30
2023/10/11 15:48:38;;;;;;;;;;;;;;;;;;5037896;28;19920;-27
2023/10/11 15:51:04;;;;;;;;;;;;;;;;;;5038165;28;19909;-24
2023/10/11 15:53:32;;;;;;;;;;;;;;;;;;5037847;28;20012;-24
2023/10/11 15:56:01;;;;;;;;;;;;;;;;;;5038053;28;19920;-26
2023/10/11 15:58:27;;;;;;;;;;;;;;;;;;5038150;28;19909;-25
2023/10/11 16:00:53;;;;;;;;;;;;;;;;;;5037869;28;19909;-30
2023/10/11 16:03:23;;;;;;;;;;;;;;;;;;5037992;28;20231;-29
2023/10/11 16:05:49;;;;;;;;;;;;;;;;;;5017037;28;19918;-26
2023/10/11 16:08:15;;;;;;;;;;;;;;;;;;5018070;28;20086;-26
2023/10/11 16:10:41;;;;;;;;;;;;;;;;;;5018032;28;19910;-22
2023/10/11 16:13:07;;;;;;;;;;;;;;;;;;5017731;28;19936;-27
2023/10/11 16:15:33;;;;;;;;;;;;;;;;;;5017756;28;19909;-30
2023/10/11 16:18:00;;;;;;;;;;;;;;;;;;5017960;28;19917;-24
2023/10/11 16:20:26;;;;;;;;;;;;;;;;;;5017497;28;19910;-32
2023/10/11 16:22:52;;;;;;;;;;;;;;;;;;5017625;28;20219;-26
2023/10/11 16:25:18;;;;;;;;;;;;;;;;;;5017478;28;20307;-30
2023/10/11 16:27:44;;;;;;;;;;;;;;;;;;5017432;28;20007;-29
2023/10/11 16:30:13;;;;;;;;;;;;;;;;;;5017581;28;20067;-27
2023/10/11 16:32:39;;;;;;;;;;;;;;;;;;5018219;28;19964;-23
2023/10/11 16:35:05;;;;;;;;;;;;;;;;;;5017872;28;19909;-26
2023/10/11 16:37:35;;;;;;;;;;;;;;;;;;5017628;28;20399;-26
2023/10/11 16:40:01;;;;;;;;;;;;;;;;;;5016441;28;20411;-26
2023/10/11 16:42:27;;;;;;;;;;;;;;;;;;5017579;28;19917;-29
2023/10/11 16:44:54;;;;;;;;;;;;;;;;;;5016503;28;19921;-19
2023/10/11 16:47:20;;;;;;;;;;;;;;;;;;5017260;28;19925;-26
2023/10/11 16:49:46;;;;;;;;;;;;;;;;;;5017347;28;19917;-30
2023/10/11 16:52:11;;;;;;;;;;;;;;;;;;5017362;28;20014;-25
2023/10/11 16:54:38;;;;;;;;;;;;;;;;;;5017188;28;19920;-20
2023/10/11 16:57:04;;;;;;;;;;;;;;;;;;5017450;28;19920;-21
2023/10/11 16:59:30;;;;;;;;;;;;;;;;;;5015960;28;20209;-26
2023/10/11 17:01:56;;;;;;;;;;;;;;;;;;5017084;28;19921;-26
2023/10/11 17:04:24;;;;;;;;;;;;;;;;;;5017094;28;19909;-32
2023/10/11 17:06:53;;;;;;;;;;;;;;;;;;5036182;28;19928;-22
2023/10/11 17:09:19;;;;;;;;;;;;;;;;;;5036877;28;19909;-21
2023/10/11 17:11:45;;;;;;;;;;;;;;;;;;5036861;28;19960;-25
2023/10/11 17:14:11;;;;;;;;;;;;;;;;;;5018787;28;19975;-26
2023/10/11 17:16:37;;;;;;;;;;;;;;;;;;5036613;28;19913;-25
2023/10/11 17:19:04;;;;;;;;;;;;;;;;;;5036637;28;19909;-25
2023/10/11 17:21:31;;;;;;;;;;;;;;;;;;5036395;28;19920;-26
2023/10/11 17:23:57;;;;;;;;;;;;;;;;;;5018812;28;19920;-26
2023/10/11 17:26:24;;;;;;;;;;;;;;;;;;5036169;28;20205;-21
2023/10/11 17:28:55;;;;;;;;;;;;;;;;;;5036237;28;19910;-24
2023/10/11 17:31:21;;;;;;;;;;;;;;;;;;5036196;28;20004;-26
2023/10/11 17:33:47;;;;;;;;;;;;;;;;;;5036541;28;19996;-25
2023/10/11 17:36:14;;;;;;;;;;;;;;;;;;5036598;28;19910;-25
2023/10/11 17:38:40;;;;;;;;;;;;;;;;;;5037076;28;19960;-25
2023/10/11 17:41:08;;;;;;;;;;;;;;;;;;5036431;28;19920;-24
2023/10/11 17:43:36;;;;;;;;;;;;;;;;;;5035870;28;19916;-25
2023/10/11 17:46:02;;;;;;;;;;;;;;;;;;5035680;28;19909;-25
2023/10/11 17:48:28;;;;;;;;;;;;;;;;;;5017765;28;19975;-23
2023/10/11 17:50:55;;;;;;;;;;;;;;;;;;5035312;28;19917;-25